createdAt,value
2022-09-20T00:00:23.543Z,9.86
2022-09-20T00:04:08.610Z,9.85
2022-09-20T00:07:36.847Z,9.84
2022-09-20T00:11:07.599Z,9.85
2022-09-20T00:14:36.668Z,9.88
2022-09-20T00:18:03.765Z,9.93
2022-09-20T00:21:32.561Z,10.00
2022-09-20T00:24:59.556Z,10.04
2022-09-20T00:28:34.140Z,10.06
2022-09-20T00:32:01.354Z,10.13
2022-09-20T00:35:29.772Z,10.19
2022-09-20T00:39:00.134Z,10.23
2022-09-20T00:42:33.301Z,10.29
2022-09-20T00:46:01.382Z,10.35
2022-09-20T00:49:31.663Z,10.38
2022-09-20T00:53:03.899Z,10.42
2022-09-20T00:56:34.509Z,10.44
2022-09-20T01:00:03.871Z,10.41
2022-09-20T01:03:34.579Z,10.39
2022-09-20T01:07:04.806Z,10.35
2022-09-20T01:10:33.510Z,10.29
2022-09-20T01:14:00.425Z,10.19
2022-09-20T01:17:31.171Z,10.13
2022-09-20T01:21:01.328Z,10.07
2022-09-20T01:24:39.279Z,10.04
2022-09-20T01:28:08.475Z,10.03
2022-09-20T01:31:43.793Z,10.02
2022-09-20T01:35:12.612Z,10.00
2022-09-20T01:38:49.809Z,10.01
2022-09-20T01:42:17.861Z,10.01
2022-09-20T01:45:50.389Z,10.01
2022-09-20T01:49:30.648Z,9.99
2022-09-20T01:53:26.993Z,9.95
2022-09-20T01:57:27.461Z,9.87
2022-09-20T02:01:21.493Z,9.79
2022-09-20T02:05:08.346Z,9.70
2022-09-20T02:09:02.215Z,9.60
2022-09-20T02:12:57.441Z,9.50
2022-09-20T02:16:48.197Z,9.39
2022-09-20T02:20:30.916Z,9.31
2022-09-20T02:24:04.787Z,9.23
2022-09-20T02:27:40.752Z,9.17
2022-09-20T02:31:17.913Z,9.15
2022-09-20T02:35:04.615Z,9.13
2022-09-20T02:38:46.429Z,9.12
2022-09-20T02:42:19.456Z,9.13
2022-09-20T02:45:54.148Z,9.10
2022-09-20T02:49:30.306Z,9.07
2022-09-20T02:53:08.852Z,9.05
2022-09-20T02:56:43.361Z,9.03
2022-09-20T03:00:16.049Z,8.98
2022-09-20T03:03:52.688Z,8.94
2022-09-20T03:07:27.898Z,8.88
2022-09-20T03:11:03.482Z,8.83
2022-09-20T03:14:38.117Z,8.78
2022-09-20T03:18:12.694Z,8.75
2022-09-20T03:21:52.434Z,8.71
2022-09-20T03:25:41.023Z,8.70
2022-09-20T03:29:20.370Z,8.69
2022-09-20T03:33:03.699Z,8.71
2022-09-20T03:37:04.702Z,8.73
2022-09-20T03:41:00.516Z,8.76
2022-09-20T03:44:59.215Z,8.79
2022-09-20T03:48:44.334Z,8.82
2022-09-20T03:52:23.194Z,8.80
2022-09-20T03:56:07.135Z,8.78
2022-09-20T03:59:54.442Z,8.74
2022-09-20T04:03:35.279Z,8.71
2022-09-20T04:07:14.866Z,8.65
2022-09-20T04:10:55.405Z,8.59
2022-09-20T04:14:31.502Z,8.53
2022-09-20T04:18:04.389Z,8.48
2022-09-20T04:21:38.415Z,8.47
2022-09-20T04:25:14.990Z,8.46
2022-09-20T04:28:46.626Z,8.47
2022-09-20T04:32:21.036Z,8.51
2022-09-20T04:36:14.756Z,8.57
2022-09-20T04:39:49.139Z,8.65
2022-09-20T04:43:53.846Z,8.72
2022-09-20T04:47:56.152Z,8.80
2022-09-20T04:51:55.451Z,8.87
2022-09-20T04:55:53.132Z,8.91
2022-09-20T04:59:36.331Z,8.95
2022-09-20T05:03:26.153Z,8.95
2022-09-20T05:07:18.560Z,8.94
2022-09-20T05:11:17.458Z,8.92
2022-09-20T05:15:10.192Z,8.89
2022-09-20T05:19:15.035Z,8.84
2022-09-20T05:23:13.611Z,8.79
2022-09-20T05:26:55.606Z,8.77
2022-09-20T05:30:34.945Z,8.77
2022-09-20T05:34:09.469Z,8.78
2022-09-20T05:37:51.722Z,8.85
2022-09-20T05:41:32.216Z,8.91
2022-09-20T05:45:14.120Z,9.01
2022-09-20T05:48:56.989Z,9.10
2022-09-20T05:52:53.138Z,9.20
2022-09-20T05:56:35.213Z,9.32
2022-09-20T06:00:07.976Z,9.44
2022-09-20T06:03:54.598Z,9.53
2022-09-20T06:07:33.205Z,9.62
2022-09-20T06:11:13.598Z,9.69
2022-09-20T06:14:55.786Z,9.77
2022-09-20T06:18:28.901Z,9.86
2022-09-20T06:22:03.959Z,9.91
2022-09-20T06:25:39.949Z,9.97
2022-09-20T06:29:12.977Z,10.00
2022-09-20T06:32:56.590Z,10.01
2022-09-20T06:36:47.306Z,10.03
2022-09-20T06:40:43.678Z,10.06
2022-09-20T06:44:11.306Z,10.10
2022-09-20T06:47:38.973Z,10.17
2022-09-20T06:51:06.900Z,10.25
2022-09-20T06:54:33.949Z,10.33
2022-09-20T06:58:01.709Z,10.41
2022-09-20T07:01:30.434Z,10.52
2022-09-20T07:04:59.525Z,10.62
2022-09-20T07:08:26.620Z,10.75
2022-09-20T07:11:53.510Z,10.86
2022-09-20T07:15:23.139Z,11.05
2022-09-20T07:18:52.553Z,11.21
2022-09-20T07:22:20.629Z,11.37
2022-09-20T07:25:47.444Z,11.49
2022-09-20T07:29:14.537Z,11.62
2022-09-20T07:32:42.245Z,11.77
2022-09-20T07:36:12.129Z,11.89
2022-09-20T07:39:39.691Z,11.97
2022-09-20T07:43:06.996Z,12.09
2022-09-20T07:46:36.541Z,12.15
2022-09-20T07:50:07.605Z,12.19
2022-09-20T07:53:35.849Z,12.24
2022-09-20T07:57:03.258Z,12.28
2022-09-20T08:00:30.156Z,12.34
2022-09-20T08:03:57.424Z,12.40
2022-09-20T08:07:25.021Z,12.47
2022-09-20T08:10:52.295Z,12.54
2022-09-20T08:14:21.272Z,12.61
2022-09-20T08:17:51.168Z,12.71
2022-09-20T08:21:17.918Z,12.81
2022-09-20T08:24:45.530Z,12.93
2022-09-20T08:28:12.238Z,13.07
2022-09-20T08:31:42.951Z,13.19
2022-09-20T08:35:12.324Z,13.33
2022-09-20T08:42:36.637Z,13.59
2022-09-20T08:46:14.061Z,13.68
2022-09-20T08:49:46.034Z,13.76
2022-09-20T08:53:21.305Z,13.86
2022-09-20T08:56:50.117Z,13.97
2022-09-20T09:00:22.232Z,14.11
2022-09-20T09:03:52.092Z,14.22
2022-09-20T09:07:24.180Z,14.28
2022-09-20T09:10:54.522Z,14.44
2022-09-20T09:14:46.039Z,14.68
2022-09-20T09:18:14.810Z,14.94
2022-09-20T09:21:46.628Z,14.94
2022-09-20T09:25:32.489Z,14.85
2022-09-20T09:29:19.932Z,14.75
2022-09-20T09:32:47.115Z,14.67
2022-09-20T09:36:18.015Z,14.57
2022-09-20T09:39:44.884Z,14.55
2022-09-20T09:43:27.351Z,14.56
2022-09-20T09:46:55.810Z,14.51
2022-09-20T09:50:28.253Z,14.48
2022-09-20T09:53:58.141Z,14.45
2022-09-20T09:57:43.624Z,14.41
2022-09-20T10:01:23.252Z,14.48
2022-09-20T10:04:59.862Z,14.68
2022-09-20T10:08:40.830Z,14.87
2022-09-20T10:12:22.126Z,15.02
2022-09-20T10:15:57.804Z,15.18
2022-09-20T10:19:38.941Z,15.29
2022-09-20T10:24:01.272Z,15.40
2022-09-20T10:27:20.697Z,15.50
2022-09-20T10:30:58.443Z,15.65
2022-09-20T10:35:04.735Z,15.77
2022-09-20T10:38:38.305Z,15.96
2022-09-20T10:42:42.118Z,16.03
2022-09-20T10:46:33.038Z,16.19
2022-09-20T10:50:17.200Z,16.41
2022-09-20T10:53:47.866Z,16.60
2022-09-20T10:57:37.297Z,16.69
2022-09-20T11:01:18.023Z,16.70
2022-09-20T11:05:03.761Z,16.82
2022-09-20T11:08:37.156Z,16.94
2022-09-20T11:12:18.453Z,17.01
2022-09-20T11:15:52.932Z,17.11
2022-09-20T11:19:28.263Z,17.24
2022-09-20T11:23:03.518Z,17.30
2022-09-20T11:26:39.641Z,17.32
2022-09-20T11:30:16.531Z,17.42
2022-09-20T11:33:52.717Z,17.51
2022-09-20T11:37:24.493Z,17.59
2022-09-20T11:40:59.814Z,17.62
2022-09-20T11:44:28.585Z,17.66
2022-09-20T11:48:00.908Z,17.72
2022-09-20T11:52:01.464Z,17.73
2022-09-20T11:55:34.818Z,17.70
2022-09-20T11:59:01.151Z,17.77
2022-09-20T12:02:35.918Z,17.70
2022-09-20T12:06:12.359Z,17.83
2022-09-20T12:09:48.006Z,18.00
2022-09-20T12:13:25.874Z,18.21
2022-09-20T12:16:53.068Z,18.36
2022-09-20T12:20:54.773Z,18.43
2022-09-20T12:24:27.109Z,18.63
2022-09-20T12:28:01.610Z,18.72
2022-09-20T12:31:51.356Z,18.87
2022-09-20T12:36:03.234Z,19.02
2022-09-20T12:39:31.882Z,19.15
2022-09-20T12:42:59.605Z,19.29
2022-09-20T12:46:31.942Z,19.42
2022-09-20T12:50:18.302Z,19.54
2022-09-20T12:53:45.555Z,19.74
2022-09-20T12:57:28.748Z,19.94
2022-09-20T13:01:40.151Z,20.06
2022-09-20T13:05:39.426Z,20.18
2022-09-20T13:09:10.267Z,20.33
2022-09-20T13:12:42.865Z,20.44
2022-09-20T13:16:20.488Z,20.12
2022-09-20T13:19:50.169Z,19.62
2022-09-20T13:23:25.088Z,19.46
2022-09-20T13:26:54.860Z,19.60
2022-09-20T13:30:24.239Z,19.73
2022-09-20T13:33:52.088Z,19.81
2022-09-20T13:37:21.935Z,19.87
2022-09-20T13:40:50.075Z,19.99
2022-09-20T13:44:20.798Z,20.03
2022-09-20T13:47:52.784Z,20.08
2022-09-20T13:51:25.658Z,20.03
2022-09-20T13:54:52.619Z,19.91
2022-09-20T13:58:25.705Z,20.00
2022-09-20T14:01:55.923Z,20.05
2022-09-20T14:05:26.885Z,20.12
2022-09-20T14:08:54.739Z,20.18
2022-09-20T14:12:23.494Z,20.24
2022-09-20T14:15:51.473Z,20.22
2022-09-20T14:19:21.642Z,20.07
2022-09-20T14:22:49.097Z,20.03
2022-09-20T14:26:30.908Z,20.04
2022-09-20T14:29:58.692Z,20.07
2022-09-20T14:33:26.005Z,20.03
2022-09-20T14:37:05.400Z,19.79
2022-09-20T14:40:34.706Z,19.40
2022-09-20T14:44:04.203Z,19.09
2022-09-20T14:47:40.229Z,18.79
2022-09-20T14:51:23.651Z,18.50
2022-09-20T14:55:02.363Z,18.24
2022-09-20T14:58:29.791Z,18.09
2022-09-20T15:02:05.849Z,17.96
2022-09-20T15:05:34.101Z,17.89
2022-09-20T15:09:02.625Z,17.76
2022-09-20T15:12:29.809Z,17.60
2022-09-20T15:15:57.317Z,17.43
2022-09-20T15:19:24.200Z,17.29
2022-09-20T15:22:51.163Z,17.11
2022-09-20T15:26:18.360Z,16.98
2022-09-20T15:29:45.127Z,16.87
2022-09-20T15:33:14.631Z,16.76
2022-09-20T15:36:42.128Z,16.63
2022-09-20T15:40:13.549Z,16.52
2022-09-20T15:43:43.477Z,16.43
2022-09-20T15:47:15.410Z,16.32
2022-09-20T15:50:44.388Z,16.19
2022-09-20T15:54:18.454Z,16.09
2022-09-20T15:57:45.078Z,15.96
2022-09-20T16:01:13.202Z,15.84
2022-09-20T16:04:39.933Z,15.70
2022-09-20T16:08:06.885Z,15.57
2022-09-20T16:11:33.586Z,15.45
2022-09-20T16:15:01.728Z,15.35
2022-09-20T16:18:46.250Z,15.26
2022-09-20T16:22:13.449Z,15.14
2022-09-20T16:25:40.689Z,15.04
2022-09-20T16:29:11.764Z,14.94
2022-09-20T16:32:39.735Z,14.83
2022-09-20T16:36:09.752Z,14.74
2022-09-20T16:39:41.069Z,14.66
2022-09-20T16:43:09.399Z,14.59
2022-09-20T16:46:37.755Z,14.52
2022-09-20T16:50:04.119Z,14.44
2022-09-20T16:53:33.278Z,14.37
2022-09-20T16:56:59.962Z,14.28
2022-09-20T17:00:26.914Z,14.26
2022-09-20T17:03:53.843Z,14.21
2022-09-20T17:07:26.926Z,14.13
2022-09-20T17:10:52.375Z,14.06
2022-09-20T17:14:22.098Z,13.96
2022-09-20T17:17:50.233Z,13.94
2022-09-20T17:21:18.372Z,13.91
2022-09-20T17:24:46.940Z,13.86
2022-09-20T17:28:13.907Z,13.77
2022-09-20T17:31:42.241Z,13.66
2022-09-20T17:35:10.150Z,13.58
2022-09-20T17:38:39.464Z,13.51
2022-09-20T17:42:06.387Z,13.43
2022-09-20T17:45:34.399Z,13.35
2022-09-20T17:49:04.788Z,13.27
2022-09-20T17:52:31.690Z,13.18
2022-09-20T17:55:59.878Z,13.10
2022-09-20T17:59:29.768Z,13.05
2022-09-20T18:02:58.125Z,12.98
2022-09-20T18:06:29.776Z,12.92
2022-09-20T18:09:56.889Z,12.85
2022-09-20T18:13:27.486Z,12.83
2022-09-20T18:17:01.905Z,12.83
2022-09-20T18:20:31.795Z,12.81
2022-09-20T18:23:59.405Z,12.77
2022-09-20T18:27:28.326Z,12.72
2022-09-20T18:31:04.438Z,12.65
2022-09-20T18:34:34.529Z,12.58
2022-09-20T18:38:02.976Z,12.47
2022-09-20T18:41:37.631Z,12.35
2022-09-20T18:45:12.044Z,12.24
2022-09-20T18:48:43.114Z,12.14
2022-09-20T18:52:14.681Z,12.04
2022-09-20T18:56:07.365Z,11.93
2022-09-20T18:59:38.961Z,11.87
2022-09-20T19:03:17.853Z,11.81
2022-09-20T19:06:51.258Z,11.75
2022-09-20T19:10:28.160Z,11.68
2022-09-20T19:14:06.484Z,11.64
2022-09-20T19:17:50.774Z,11.62
2022-09-20T19:21:34.345Z,11.60
2022-09-20T19:25:26.733Z,11.62
2022-09-20T19:29:00.580Z,11.63
2022-09-20T19:32:35.117Z,11.63
2022-09-20T19:36:07.901Z,11.62
2022-09-20T19:39:51.637Z,11.60
2022-09-20T19:43:48.106Z,11.54
2022-09-20T19:47:30.823Z,11.49
2022-09-20T19:51:02.253Z,11.42
2022-09-20T19:54:32.034Z,11.37
2022-09-20T19:58:01.837Z,11.34
2022-09-20T20:01:31.453Z,11.31
2022-09-20T20:05:03.873Z,11.29
2022-09-20T20:08:39.676Z,11.28
2022-09-20T20:12:15.125Z,11.30
2022-09-20T20:15:53.521Z,11.32
2022-09-20T20:19:41.738Z,11.33
2022-09-20T20:23:38.564Z,11.34
2022-09-20T20:27:06.222Z,11.37
2022-09-20T20:30:33.458Z,11.39
2022-09-20T20:34:00.791Z,11.38
2022-09-20T20:37:28.647Z,11.36
2022-09-20T20:41:04.905Z,11.34
2022-09-20T20:44:35.209Z,11.31
2022-09-20T20:48:03.581Z,11.27
2022-09-20T20:51:33.284Z,11.22
2022-09-20T20:55:00.507Z,11.18
2022-09-20T20:58:33.775Z,11.14
2022-09-20T21:02:07.807Z,11.12
2022-09-20T21:05:48.971Z,11.11
2022-09-20T21:09:25.879Z,11.10
2022-09-20T21:12:56.082Z,11.12
2022-09-20T21:16:28.347Z,11.14
2022-09-20T21:20:02.762Z,11.17
2022-09-20T21:23:29.820Z,11.21
2022-09-20T21:26:57.307Z,11.26
2022-09-20T21:30:24.249Z,11.28
2022-09-20T21:33:52.453Z,11.32
2022-09-20T21:37:19.763Z,11.33
2022-09-20T21:40:46.772Z,11.32
2022-09-20T21:44:15.243Z,11.30
2022-09-20T21:47:43.812Z,11.28
2022-09-20T21:51:12.545Z,11.24
2022-09-20T21:54:42.463Z,11.20
2022-09-20T21:58:29.402Z,11.18
2022-09-20T22:02:07.625Z,11.20
2022-09-20T22:05:53.701Z,11.22
2022-09-20T22:09:44.231Z,11.25
2022-09-20T22:13:32.358Z,11.30
2022-09-20T22:17:22.099Z,11.34
2022-09-20T22:21:10.224Z,11.42
2022-09-20T22:24:49.327Z,11.50
2022-09-20T22:28:36.529Z,11.57
2022-09-20T22:32:17.742Z,11.62
2022-09-20T22:36:10.045Z,11.66
2022-09-20T22:40:04.636Z,11.71
2022-09-20T22:43:59.097Z,11.72
2022-09-20T22:47:54.933Z,11.69
2022-09-20T22:51:49.514Z,11.67
2022-09-20T22:55:33.013Z,11.65
2022-09-20T22:59:27.544Z,11.62
2022-09-20T23:03:17.245Z,11.59
2022-09-20T23:07:13.856Z,11.58
2022-09-20T23:11:13.711Z,11.58
2022-09-20T23:15:06.787Z,11.60
2022-09-20T23:18:55.889Z,11.64
2022-09-20T23:22:50.087Z,11.66
2022-09-20T23:26:41.005Z,11.71
2022-09-20T23:30:32.534Z,11.78
2022-09-20T23:34:21.572Z,11.82
2022-09-20T23:38:07.370Z,11.86
2022-09-20T23:42:02.430Z,11.90
2022-09-20T23:46:00.250Z,11.93
2022-09-20T23:49:50.370Z,11.93
2022-09-20T23:53:42.319Z,11.92
2022-09-20T23:57:30.075Z,11.91
